Stuttgart, Arkansas
Current Conditions -  °F | °C
As of 5:15 PM on Wednesday 22 Oct 2014 (Local Time) from KSGT Reporting Station
Clear Clear  
Wind Chill: 66°   Ceiling: Unl
Heat Index: 66°   Visibility: 10mi
Dew Point: 43°   Wind: 9mph
Humidity: 43%   Direction: 40°NE
Pressure: 30.17"   Gusts: NA
Location:  34.5°N, 91.55°W
Report Text: KSGT 222215Z AUTO 04008KT 10SM CLR 19/06 A3017 RMK AO1
Loading
Personal Weather Stations






























Interactive Weather Map
Tropical Storm Tracking
New forecast layout! Learn more

10-Day Weather Forecast

Advertisements
Track Severe Weather on mobile